Manila Express — VRCX7 — position and weather

sailwx.info

Track history (hours):
 
Tides and Currents Weather Stations Pressure Air Temp Water Temp Dewpoint Dewpoint Depression Visibility Wind Speed Wind Dir Waves Ship Positions

Manila Express

Last reported at 2014-Oct-23 02:33 UTC. Time now 2014-Oct-23 03:10 UTC.
Position N 51°04' E 001°32'.

Length 260 m; draft 10.6 m.

Type: Ship (hazmat cat A). MMSI: 477830800.

Date/timePositionNaut miles runAvg speedWind from/ knotsBaromVisibWave heightAir tempDewpointWater temp
2014-Oct-23 02:33N 51°04' E 001°32'1615.9
2014-Oct-23 01:33N 51°16' E 001°48'1514.8
2014-Oct-23 00:34N 51°29' E 002°02'1615.4
2014-Oct-22 23:33N 51°40' E 002°19'4715.6
2014-Oct-22 20:32N 52°03' E 003°25'1616.6
2014-Oct-22 19:34N 52°03' E 003°51'1211.5
2014-Oct-22 18:33N 51°58' E 004°08'10 9.9
2014-Oct-22 17:33N 51°54' E 004°22'2 1.5
2014-Oct-22 16:30N 51°53' E 004°24'0 0.0
2014-Oct-22 15:33N 51°53' E 004°24'0 0.0
2014-Oct-22 14:33N 51°53' E 004°24'0 0.0
2014-Oct-22 13:30N 51°53' E 004°24'0 0.0
2014-Oct-22 12:33N 51°53' E 004°24'0 0.0
2014-Oct-22 11:27N 51°53' E 004°24'0 0.0
2014-Oct-22 10:31N 51°53' E 004°24'0 0.0
2014-Oct-22 09:33N 51°53' E 004°24'0 0.0
2014-Oct-22 08:33N 51°53' E 004°24'0 0.0
2014-Oct-22 07:30N 51°53' E 004°24'0 0.0
2014-Oct-22 06:33N 51°53' E 004°24'0 0.0
2014-Oct-22 05:33N 51°53' E 004°24'0 0.0
2014-Oct-22 04:33N 51°53' E 004°24'0 0.0
2014-Oct-22 03:30N 51°53' E 004°24'0 0.0
2014-Oct-22 02:33N 51°53' E 004°24'0 0.0
2014-Oct-22 01:33N 51°53' E 004°24'0 0.0
2014-Oct-22 00:33N 51°53' E 004°24'0 0.0
2014-Oct-21 23:33N 51°53' E 004°24'0 0.0
2014-Oct-21 22:32N 51°53' E 004°24'0 0.0
2014-Oct-21 21:32N 51°53' E 004°24'0 0.0
2014-Oct-21 20:32N 51°53' E 004°24'0 0.0
2014-Oct-21 19:32N 51°53' E 004°24'0 0.0
2014-Oct-21 18:32N 51°53' E 004°24'0 0.0
2014-Oct-21 17:32N 51°53' E 004°24'0 0.0
2014-Oct-21 16:32N 51°53' E 004°24'0 0.0
2014-Oct-21 15:26N 51°53' E 004°24'0 0.0
2014-Oct-21 14:33N 51°53' E 004°24'0 0.0
2014-Oct-21 13:32N 51°53' E 004°24'0 0.0
2014-Oct-21 12:32N 51°53' E 004°24'0 0.0
2014-Oct-21 11:32N 51°53' E 004°24'0 0.0
2014-Oct-21 10:33N 51°53' E 004°24'5 5.1
2014-Oct-21 09:33N 51°54' E 004°16'1111.0
2014-Oct-21 08:33N 51°60' E 004°01'9 9.1
2014-Oct-21 07:33N 52°02' E 003°47'1111.1
2014-Oct-21 06:33N 52°13' E 003°47'1716.9
2014-Oct-21 05:33N 52°30' E 003°50'1817.2
2014-Oct-21 04:32N 52°47' E 003°56'3216.3
2014-Oct-21 02:33N 53°14' E 004°26'1615.7
2014-Oct-21 01:34N 53°28' E 004°37'1616.0
2014-Oct-21 00:33N 53°34' E 005°01'1716.7
2014-Oct-20 23:33N 53°40' E 005°28'1716.9
2014-Oct-20 22:33N 53°45' E 005°55'1817.2
2014-Oct-20 21:32N 53°50' E 006°24'3917.3
2014-Oct-20 19:15N 53°60' E 007°29'1216.7
2014-Oct-20 18:33N 54°01' E 007°48'1515.2
2014-Oct-20 17:33N 54°01' E 008°14'1414.1
2014-Oct-20 16:33N 53°57' E 008°37'1514.6
2014-Oct-20 15:34N 53°51' E 008°60'1313.2
2014-Oct-20 14:33N 53°49' E 009°22'1413.9
2014-Oct-20 13:33N 53°37' E 009°33'1010.2
2014-Oct-20 12:33N 53°33' E 009°49'4 3.3
2014-Oct-20 11:29N 53°32' E 009°55'0 0.0
2014-Oct-20 10:32N 53°32' E 009°55'0 0.0
2014-Oct-20 09:32N 53°32' E 009°55'0 0.0
2014-Oct-20 08:29N 53°32' E 009°55'0 0.0
2014-Oct-20 07:33N 53°32' E 009°55'0 0.0
2014-Oct-20 06:29N 53°32' E 009°55'0 0.0
2014-Oct-20 05:32N 53°32' E 009°55'0 0.0
2014-Oct-20 04:29N 53°32' E 009°55'0 0.0
2014-Oct-20 03:32N 53°32' E 009°55'0 0.0
2014-Oct-20 02:32N 53°32' E 009°55'0 0.0
2014-Oct-20 01:32N 53°32' E 009°55'0 0.0
2014-Oct-20 00:32N 53°32' E 009°55'0 0.0
2014-Oct-19 23:29N 53°32' E 009°55'0 0.0
2014-Oct-19 22:29N 53°32' E 009°55'0 0.0
2014-Oct-19 21:29N 53°32' E 009°55'0 0.0
2014-Oct-19 20:29N 53°32' E 009°55'0 0.0
2014-Oct-19 19:29N 53°32' E 009°55'0 0.0
2014-Oct-19 18:32N 53°32' E 009°55'0 0.0
2014-Oct-19 17:29N 53°32' E 009°55'0 0.0
2014-Oct-19 16:32N 53°32' E 009°55'0 0.0
2014-Oct-19 15:32N 53°32' E 009°55'0 0.0
2014-Oct-19 14:32N 53°32' E 009°55'0 0.0
2014-Oct-19 13:32N 53°32' E 009°55'0 0.0
2014-Oct-19 12:29N 53°32' E 009°55'0 0.0
2014-Oct-19 11:29N 53°32' E 009°55'0 0.0
2014-Oct-19 10:29N 53°32' E 009°55'0 0.0
2014-Oct-19 09:32N 53°32' E 009°55'0 0.0
2014-Oct-19 08:32N 53°32' E 009°55'0 0.0
2014-Oct-19 07:32N 53°32' E 009°55'0 0.0
2014-Oct-19 06:32N 53°32' E 009°55'0 0.0
2014-Oct-19 05:32N 53°32' E 009°55'1 0.6
2014-Oct-19 04:33N 53°32' E 009°54'6 6.4
2014-Oct-19 03:34N 53°34' E 009°44'1010.3
2014-Oct-19 02:34N 53°40' E 009°30'1212.0
2014-Oct-19 01:33N 53°51' E 009°20'10 9.5
2014-Oct-19 00:33N 53°52' E 009°04'1212.5
2014-Oct-18 23:34N 53°53' E 008°43'1514.8
2014-Oct-18 22:33N 53°59' E 008°20'1110.8
2014-Oct-18 21:33N 53°59' E 008°02'1312.5
2014-Oct-18 20:33N 53°57' E 007°41'1312.5
2014-Oct-18 19:31N 53°54' E 007°20'2713.7
2014-Oct-18 17:32N 53°47' E 006°35'1313.5
2014-Oct-18 16:33N 53°44' E 006°14'1413.7
2014-Oct-18 15:33N 53°39' E 005°52'1413.9
2014-Oct-18 14:34N 53°34' E 005°30'1413.7
2014-Oct-18 13:33N 53°30' E 005°08'1313.3
2014-Oct-18 12:33N 53°25' E 004°47'1413.5
2014-Oct-18 11:33N 53°14' E 004°34'1514.1
2014-Oct-18 10:27N 53°01' E 004°21'1213.9
2014-Oct-18 09:33N 52°50' E 004°12'1414.0
2014-Oct-18 08:33N 52°39' E 003°58'1414.4
2014-Oct-18 07:34N 52°29' E 003°40'7014.1
2014-Oct-18 02:34N 51°51' E 002°03'1312.8
2014-Oct-18 01:34N 51°50' E 001°43'9 8.7
2014-Oct-18 00:33N 51°45' E 001°31'1817.9
2014-Oct-17 23:33N 51°33' E 001°10'1717.0
2014-Oct-17 22:33N 51°30' E 000°43'1312.7
2014-Oct-17 21:34N 51°27' E 000°23'2 2.2
2014-Oct-17 20:33N 51°28' E 000°20'0 0.0
2014-Oct-17 19:34N 51°28' E 000°20'0 0.0
2014-Oct-17 18:33N 51°28' E 000°20'0 0.0
2014-Oct-17 17:34N 51°28' E 000°20'0 0.0
2014-Oct-17 16:34N 51°28' E 000°20'0 0.0
2014-Oct-17 15:33N 51°28' E 000°20'0 0.0
2014-Oct-17 14:34N 51°28' E 000°20'0 0.0
2014-Oct-17 13:33N 51°28' E 000°20'0 0.0
2014-Oct-17 12:33N 51°28' E 000°20'0 0.0
2014-Oct-17 11:34N 51°28' E 000°20'0 0.0
2014-Oct-17 10:34N 51°28' E 000°20'0 0.0
2014-Oct-17 09:33N 51°28' E 000°20'0 0.0
2014-Oct-17 08:34N 51°28' E 000°20'0 0.0
2014-Oct-17 07:33N 51°28' E 000°20'0 0.0
2014-Oct-17 06:34N 51°28' E 000°20'2 1.6
2014-Oct-17 05:33N 51°27' E 000°22'10 9.5
2014-Oct-17 04:33N 51°30' E 000°37'1414.4
2014-Oct-17 03:33N 51°30' E 000°60'1414.4
2014-Oct-17 02:33N 51°37' E 001°19'1414.3
2014-Oct-17 01:33N 51°49' E 001°33'8 7.9
2014-Oct-17 00:33N 51°51' E 001°45'10 9.6
2014-Oct-16 23:33N 51°42' E 001°50'1212.2
2014-Oct-16 22:33N 51°30' E 001°47'1212.3
2014-Oct-16 21:34N 51°18' E 001°41'1111.3
2014-Oct-16 20:33N 51°07' E 001°40'1313.4
2014-Oct-16 19:33N 50°56' E 001°26'1515.3
2014-Oct-16 18:33N 50°42' E 001°19'1716.8
2014-Oct-16 17:33N 50°30' E 000°60'1616.5
2014-Oct-16 16:34N 50°25' E 000°35'1716.9
2014-Oct-16 15:33N 50°20' E 000°09'10617.4
2014-Oct-16 09:26N 49°52' W 002°30'1915.8
2014-Oct-16 08:14N 49°48' W 002°59'1415.7
2014-Oct-16 07:21N 49°41' W 003°17'1315.7
2014-Oct-16 06:33N 49°35' W 003°35'75816.5
2014-Oct-14 08:29N 37°42' W 009°34'1717.9
2014-Oct-14 07:33N 37°26' W 009°29'20716.6
2014-Oct-13 19:09N 35°57' W 005°36'1016.4
2014-Oct-13 18:34N 36°01' W 005°25'1717.2
2014-Oct-13 17:33N 36°05' W 005°04'  
Track history (hours):
 
Tides and Currents Weather Stations Pressure Air Temp Water Temp Dewpoint Dewpoint Depression Visibility Wind Speed Wind Dir Waves Ship Positions

Manila Express

Last reported at 2014-Oct-23 02:33 UTC. Time now 2014-Oct-23 03:10 UTC.
Position N 51°04' E 001°32'.

Length 260 m; draft 10.6 m.

Type: Ship (hazmat cat A). MMSI: 477830800.

Date/timePositionNaut miles runAvg speedWind from/ knotsBaromVisibWave heightAir tempDewpointWater temp
2014-Oct-23 02:33N 51°04' E 001°32'1615.9
2014-Oct-23 01:33N 51°16' E 001°48'1514.8
2014-Oct-23 00:34N 51°29' E 002°02'1615.4
2014-Oct-22 23:33N 51°40' E 002°19'4715.6
2014-Oct-22 20:32N 52°03' E 003°25'1616.6
2014-Oct-22 19:34N 52°03' E 003°51'1211.5
2014-Oct-22 18:33N 51°58' E 004°08'10 9.9
2014-Oct-22 17:33N 51°54' E 004°22'2 1.5
2014-Oct-22 16:30N 51°53' E 004°24'0 0.0
2014-Oct-22 15:33N 51°53' E 004°24'0 0.0
2014-Oct-22 14:33N 51°53' E 004°24'0 0.0
2014-Oct-22 13:30N 51°53' E 004°24'0 0.0
2014-Oct-22 12:33N 51°53' E 004°24'0 0.0
2014-Oct-22 11:27N 51°53' E 004°24'0 0.0
2014-Oct-22 10:31N 51°53' E 004°24'0 0.0
2014-Oct-22 09:33N 51°53' E 004°24'0 0.0
2014-Oct-22 08:33N 51°53' E 004°24'0 0.0
2014-Oct-22 07:30N 51°53' E 004°24'0 0.0
2014-Oct-22 06:33N 51°53' E 004°24'0 0.0
2014-Oct-22 05:33N 51°53' E 004°24'0 0.0
2014-Oct-22 04:33N 51°53' E 004°24'0 0.0
2014-Oct-22 03:30N 51°53' E 004°24'0 0.0
2014-Oct-22 02:33N 51°53' E 004°24'0 0.0
2014-Oct-22 01:33N 51°53' E 004°24'0 0.0
2014-Oct-22 00:33N 51°53' E 004°24'0 0.0
2014-Oct-21 23:33N 51°53' E 004°24'0 0.0
2014-Oct-21 22:32N 51°53' E 004°24'0 0.0
2014-Oct-21 21:32N 51°53' E 004°24'0 0.0
2014-Oct-21 20:32N 51°53' E 004°24'0 0.0
2014-Oct-21 19:32N 51°53' E 004°24'0 0.0
2014-Oct-21 18:32N 51°53' E 004°24'0 0.0
2014-Oct-21 17:32N 51°53' E 004°24'0 0.0
2014-Oct-21 16:32N 51°53' E 004°24'0 0.0
2014-Oct-21 15:26N 51°53' E 004°24'0 0.0
2014-Oct-21 14:33N 51°53' E 004°24'0 0.0
2014-Oct-21 13:32N 51°53' E 004°24'0 0.0
2014-Oct-21 12:32N 51°53' E 004°24'0 0.0
2014-Oct-21 11:32N 51°53' E 004°24'0 0.0
2014-Oct-21 10:33N 51°53' E 004°24'5 5.1
2014-Oct-21 09:33N 51°54' E 004°16'1111.0
2014-Oct-21 08:33N 51°60' E 004°01'9 9.1
2014-Oct-21 07:33N 52°02' E 003°47'1111.1
2014-Oct-21 06:33N 52°13' E 003°47'1716.9
2014-Oct-21 05:33N 52°30' E 003°50'1817.2
2014-Oct-21 04:32N 52°47' E 003°56'3216.3
2014-Oct-21 02:33N 53°14' E 004°26'1615.7
2014-Oct-21 01:34N 53°28' E 004°37'1616.0
2014-Oct-21 00:33N 53°34' E 005°01'1716.7
2014-Oct-20 23:33N 53°40' E 005°28'1716.9
2014-Oct-20 22:33N 53°45' E 005°55'1817.2
2014-Oct-20 21:32N 53°50' E 006°24'3917.3
2014-Oct-20 19:15N 53°60' E 007°29'1216.7
2014-Oct-20 18:33N 54°01' E 007°48'1515.2
2014-Oct-20 17:33N 54°01' E 008°14'1414.1
2014-Oct-20 16:33N 53°57' E 008°37'1514.6
2014-Oct-20 15:34N 53°51' E 008°60'1313.2
2014-Oct-20 14:33N 53°49' E 009°22'1413.9
2014-Oct-20 13:33N 53°37' E 009°33'1010.2
2014-Oct-20 12:33N 53°33' E 009°49'4 3.3
2014-Oct-20 11:29N 53°32' E 009°55'0 0.0
2014-Oct-20 10:32N 53°32' E 009°55'0 0.0
2014-Oct-20 09:32N 53°32' E 009°55'0 0.0
2014-Oct-20 08:29N 53°32' E 009°55'0 0.0
2014-Oct-20 07:33N 53°32' E 009°55'0 0.0
2014-Oct-20 06:29N 53°32' E 009°55'0 0.0
2014-Oct-20 05:32N 53°32' E 009°55'0 0.0
2014-Oct-20 04:29N 53°32' E 009°55'0 0.0
2014-Oct-20 03:32N 53°32' E 009°55'0 0.0
2014-Oct-20 02:32N 53°32' E 009°55'0 0.0
2014-Oct-20 01:32N 53°32' E 009°55'0 0.0
2014-Oct-20 00:32N 53°32' E 009°55'0 0.0
2014-Oct-19 23:29N 53°32' E 009°55'0 0.0
2014-Oct-19 22:29N 53°32' E 009°55'0 0.0
2014-Oct-19 21:29N 53°32' E 009°55'0 0.0
2014-Oct-19 20:29N 53°32' E 009°55'0 0.0
2014-Oct-19 19:29N 53°32' E 009°55'0 0.0
2014-Oct-19 18:32N 53°32' E 009°55'0 0.0
2014-Oct-19 17:29N 53°32' E 009°55'0 0.0
2014-Oct-19 16:32N 53°32' E 009°55'0 0.0
2014-Oct-19 15:32N 53°32' E 009°55'0 0.0
2014-Oct-19 14:32N 53°32' E 009°55'0 0.0
2014-Oct-19 13:32N 53°32' E 009°55'0 0.0
2014-Oct-19 12:29N 53°32' E 009°55'0 0.0
2014-Oct-19 11:29N 53°32' E 009°55'0 0.0
2014-Oct-19 10:29N 53°32' E 009°55'0 0.0
2014-Oct-19 09:32N 53°32' E 009°55'0 0.0
2014-Oct-19 08:32N 53°32' E 009°55'0 0.0
2014-Oct-19 07:32N 53°32' E 009°55'0 0.0
2014-Oct-19 06:32N 53°32' E 009°55'0 0.0
2014-Oct-19 05:32N 53°32' E 009°55'1 0.6
2014-Oct-19 04:33N 53°32' E 009°54'6 6.4
2014-Oct-19 03:34N 53°34' E 009°44'1010.3
2014-Oct-19 02:34N 53°40' E 009°30'1212.0
2014-Oct-19 01:33N 53°51' E 009°20'10 9.5
2014-Oct-19 00:33N 53°52' E 009°04'1212.5
2014-Oct-18 23:34N 53°53' E 008°43'1514.8
2014-Oct-18 22:33N 53°59' E 008°20'1110.8
2014-Oct-18 21:33N 53°59' E 008°02'1312.5
2014-Oct-18 20:33N 53°57' E 007°41'1312.5
2014-Oct-18 19:31N 53°54' E 007°20'2713.7
2014-Oct-18 17:32N 53°47' E 006°35'1313.5
2014-Oct-18 16:33N 53°44' E 006°14'1413.7
2014-Oct-18 15:33N 53°39' E 005°52'1413.9
2014-Oct-18 14:34N 53°34' E 005°30'1413.7
2014-Oct-18 13:33N 53°30' E 005°08'1313.3
2014-Oct-18 12:33N 53°25' E 004°47'1413.5
2014-Oct-18 11:33N 53°14' E 004°34'1514.1
2014-Oct-18 10:27N 53°01' E 004°21'1213.9
2014-Oct-18 09:33N 52°50' E 004°12'1414.0
2014-Oct-18 08:33N 52°39' E 003°58'1414.4
2014-Oct-18 07:34N 52°29' E 003°40'7014.1
2014-Oct-18 02:34N 51°51' E 002°03'1312.8
2014-Oct-18 01:34N 51°50' E 001°43'9 8.7
2014-Oct-18 00:33N 51°45' E 001°31'1817.9
2014-Oct-17 23:33N 51°33' E 001°10'1717.0
2014-Oct-17 22:33N 51°30' E 000°43'1312.7
2014-Oct-17 21:34N 51°27' E 000°23'2 2.2
2014-Oct-17 20:33N 51°28' E 000°20'0 0.0
2014-Oct-17 19:34N 51°28' E 000°20'0 0.0
2014-Oct-17 18:33N 51°28' E 000°20'0 0.0
2014-Oct-17 17:34N 51°28' E 000°20'0 0.0
2014-Oct-17 16:34N 51°28' E 000°20'0 0.0
2014-Oct-17 15:33N 51°28' E 000°20'0 0.0
2014-Oct-17 14:34N 51°28' E 000°20'0 0.0
2014-Oct-17 13:33N 51°28' E 000°20'0 0.0
2014-Oct-17 12:33N 51°28' E 000°20'0 0.0
2014-Oct-17 11:34N 51°28' E 000°20'0 0.0
2014-Oct-17 10:34N 51°28' E 000°20'0 0.0
2014-Oct-17 09:33N 51°28' E 000°20'0 0.0
2014-Oct-17 08:34N 51°28' E 000°20'0 0.0
2014-Oct-17 07:33N 51°28' E 000°20'0 0.0
2014-Oct-17 06:34N 51°28' E 000°20'2 1.6
2014-Oct-17 05:33N 51°27' E 000°22'10 9.5
2014-Oct-17 04:33N 51°30' E 000°37'1414.4
2014-Oct-17 03:33N 51°30' E 000°60'1414.4
2014-Oct-17 02:33N 51°37' E 001°19'1414.3
2014-Oct-17 01:33N 51°49' E 001°33'8 7.9
2014-Oct-17 00:33N 51°51' E 001°45'10 9.6
2014-Oct-16 23:33N 51°42' E 001°50'1212.2
2014-Oct-16 22:33N 51°30' E 001°47'1212.3
2014-Oct-16 21:34N 51°18' E 001°41'1111.3
2014-Oct-16 20:33N 51°07' E 001°40'1313.4
2014-Oct-16 19:33N 50°56' E 001°26'1515.3
2014-Oct-16 18:33N 50°42' E 001°19'1716.8
2014-Oct-16 17:33N 50°30' E 000°60'1616.5
2014-Oct-16 16:34N 50°25' E 000°35'1716.9
2014-Oct-16 15:33N 50°20' E 000°09'10617.4
2014-Oct-16 09:26N 49°52' W 002°30'1915.8
2014-Oct-16 08:14N 49°48' W 002°59'1415.7
2014-Oct-16 07:21N 49°41' W 003°17'1315.7
2014-Oct-16 06:33N 49°35' W 003°35'75816.5
2014-Oct-14 08:29N 37°42' W 009°34'1717.9
2014-Oct-14 07:33N 37°26' W 009°29'20716.6
2014-Oct-13 19:09N 35°57' W 005°36'1016.4
2014-Oct-13 18:34N 36°01' W 005°25'1717.2
2014-Oct-13 17:33N 36°05' W 005°04'  

Dump ship's entire track history